logo
Search for airport 
image banner adimage banner adimage banner ad
image banner ad

LSHZ - Universitaetsspital Zuerich

Located in , Switzerland

ICAO - , IATA -

Data provided by Airmate  

General information

Coordinates: N47°22'37" E8°33'4"
Elevation is 1567 feet MSL.
 
View others Airports in Zurich

Operational data

Special qualification required
Current time UTC:
Current local time:
Weather at : LSMD - Dubendorf ( 8 km )
METAR: LSMD 152250Z AUTO 28011KT 200V320 9999NDV FEW055 OVC084 13/02 Q1011 RMK
View NOTAMs / SUP AIP / TFR affecting this airport [VIEW]
Communications frequencies: [VIEW]

Runways:

Airport contact information

Address: Switzerland

Satellite view of LSHZ